sensor_id;sensor_type;location;lat;lon;timestamp;temperature;humidity
37281;DHT22;23169;41.804;12.596;2023-04-08T00:01:41;12.00;1.00
37281;DHT22;23169;41.804;12.596;2023-04-08T00:04:09;11.90;1.00
37281;DHT22;23169;41.804;12.596;2023-04-08T00:06:38;11.90;1.00
37281;DHT22;23169;41.804;12.596;2023-04-08T00:09:07;11.80;1.00
37281;DHT22;23169;41.804;12.596;2023-04-08T00:11:35;11.80;1.00
37281;DHT22;23169;41.804;12.596;2023-04-08T00:14:05;11.70;1.00
37281;DHT22;23169;41.804;12.596;2023-04-08T00:16:34;11.70;1.00
37281;DHT22;23169;41.804;12.596;2023-04-08T00:19:03;11.60;1.00
37281;DHT22;23169;41.804;12.596;2023-04-08T00:21:33;11.50;1.00
37281;DHT22;23169;41.804;12.596;2023-04-08T00:24:03;11.60;1.00
37281;DHT22;23169;41.804;12.596;2023-04-08T00:26:33;11.60;1.00
37281;DHT22;23169;41.804;12.596;2023-04-08T00:29:02;11.60;1.00
37281;DHT22;23169;41.804;12.596;2023-04-08T00:31:31;11.60;1.00
37281;DHT22;23169;41.804;12.596;2023-04-08T00:34:00;11.60;1.00
37281;DHT22;23169;41.804;12.596;2023-04-08T00:36:30;11.70;1.00
37281;DHT22;23169;41.804;12.596;2023-04-08T00:38:58;11.70;1.00
37281;DHT22;23169;41.804;12.596;2023-04-08T00:41:27;11.70;1.00
37281;DHT22;23169;41.804;12.596;2023-04-08T00:43:56;11.70;1.00
37281;DHT22;23169;41.804;12.596;2023-04-08T00:46:24;11.70;1.00
37281;DHT22;23169;41.804;12.596;2023-04-08T00:48:54;11.70;1.00
37281;DHT22;23169;41.804;12.596;2023-04-08T00:51:23;11.70;1.00
37281;DHT22;23169;41.804;12.596;2023-04-08T00:53:52;11.60;1.00
37281;DHT22;23169;41.804;12.596;2023-04-08T00:56:23;11.50;1.00
37281;DHT22;23169;41.804;12.596;2023-04-08T00:58:51;11.50;1.00
37281;DHT22;23169;41.804;12.596;2023-04-08T01:01:36;11.50;1.00
37281;DHT22;23169;41.804;12.596;2023-04-08T01:06:49;11.40;1.00
37281;DHT22;23169;41.804;12.596;2023-04-08T01:09:20;11.30;1.00
37281;DHT22;23169;41.804;12.596;2023-04-08T01:11:51;11.20;1.00
37281;DHT22;23169;41.804;12.596;2023-04-08T01:14:23;11.10;1.00
37281;DHT22;23169;41.804;12.596;2023-04-08T01:16:56;11.10;1.00
37281;DHT22;23169;41.804;12.596;2023-04-08T01:19:32;11.10;1.00
37281;DHT22;23169;41.804;12.596;2023-04-08T01:22:18;10.60;1.90
37281;DHT22;23169;41.804;12.596;2023-04-08T01:24:49;11.10;1.00
37281;DHT22;23169;41.804;12.596;2023-04-08T01:27:19;11.50;1.00
37281;DHT22;23169;41.804;12.596;2023-04-08T01:29:48;11.00;1.00
37281;DHT22;23169;41.804;12.596;2023-04-08T01:32:17;11.00;1.00
37281;DHT22;23169;41.804;12.596;2023-04-08T01:34:46;11.00;1.00
37281;DHT22;23169;41.804;12.596;2023-04-08T01:37:16;11.00;1.00
37281;DHT22;23169;41.804;12.596;2023-04-08T01:39:46;11.00;1.00
37281;DHT22;23169;41.804;12.596;2023-04-08T01:42:15;11.00;1.00
37281;DHT22;23169;41.804;12.596;2023-04-08T01:44:46;11.00;1.00
37281;DHT22;23169;41.804;12.596;2023-04-08T01:47:15;10.70;6.60
37281;DHT22;23169;41.804;12.596;2023-04-08T01:49:44;11.00;1.00
37281;DHT22;23169;41.804;12.596;2023-04-08T01:52:13;10.90;1.00
37281;DHT22;23169;41.804;12.596;2023-04-08T01:54:43;11.00;1.00
37281;DHT22;23169;41.804;12.596;2023-04-08T01:57:21;11.00;1.00
37281;DHT22;23169;41.804;12.596;2023-04-08T01:59:51;11.00;1.00
37281;DHT22;23169;41.804;12.596;2023-04-08T02:02:22;11.10;1.00
37281;DHT22;23169;41.804;12.596;2023-04-08T02:04:55;11.10;1.00
37281;DHT22;23169;41.804;12.596;2023-04-08T02:07:23;11.20;1.00
37281;DHT22;23169;41.804;12.596;2023-04-08T02:09:52;11.20;1.00
37281;DHT22;23169;41.804;12.596;2023-04-08T02:12:21;11.20;1.00
37281;DHT22;23169;41.804;12.596;2023-04-08T02:14:50;11.20;1.00
37281;DHT22;23169;41.804;12.596;2023-04-08T02:20:13;11.20;1.00
37281;DHT22;23169;41.804;12.596;2023-04-08T02:22:52;11.30;1.00
37281;DHT22;23169;41.804;12.596;2023-04-08T02:25:24;11.30;1.00
37281;DHT22;23169;41.804;12.596;2023-04-08T02:27:54;11.40;1.00
37281;DHT22;23169;41.804;12.596;2023-04-08T02:30:24;11.40;1.00
37281;DHT22;23169;41.804;12.596;2023-04-08T02:32:56;11.50;5.60
37281;DHT22;23169;41.804;12.596;2023-04-08T02:35:30;11.50;1.00
37281;DHT22;23169;41.804;12.596;2023-04-08T02:37:59;11.50;1.00
37281;DHT22;23169;41.804;12.596;2023-04-08T02:40:32;11.50;1.00
37281;DHT22;23169;41.804;12.596;2023-04-08T02:43:03;11.50;1.00
37281;DHT22;23169;41.804;12.596;2023-04-08T02:45:37;11.50;1.00
37281;DHT22;23169;41.804;12.596;2023-04-08T02:48:09;11.50;1.00
37281;DHT22;23169;41.804;12.596;2023-04-08T02:50:38;11.40;1.00
37281;DHT22;23169;41.804;12.596;2023-04-08T02:53:08;11.40;1.00
37281;DHT22;23169;41.804;12.596;2023-04-08T02:55:37;11.20;16.10
37281;DHT22;23169;41.804;12.596;2023-04-08T02:58:07;11.40;1.00
37281;DHT22;23169;41.804;12.596;2023-04-08T03:00:36;11.40;1.00
37281;DHT22;23169;41.804;12.596;2023-04-08T03:03:07;11.40;1.00
37281;DHT22;23169;41.804;12.596;2023-04-08T03:05:35;11.30;1.00
37281;DHT22;23169;41.804;12.596;2023-04-08T03:08:05;11.20;1.00
37281;DHT22;23169;41.804;12.596;2023-04-08T03:10:34;11.10;1.00
37281;DHT22;23169;41.804;12.596;2023-04-08T03:13:05;11.10;1.00
37281;DHT22;23169;41.804;12.596;2023-04-08T03:15:35;11.00;1.00
37281;DHT22;23169;41.804;12.596;2023-04-08T03:18:04;11.00;1.00
37281;DHT22;23169;41.804;12.596;2023-04-08T03:20:34;10.90;1.00
37281;DHT22;23169;41.804;12.596;2023-04-08T03:23:07;10.80;1.00
37281;DHT22;23169;41.804;12.596;2023-04-08T03:25:36;10.80;1.00
37281;DHT22;23169;41.804;12.596;2023-04-08T03:28:08;10.70;1.00
37281;DHT22;23169;41.804;12.596;2023-04-08T03:30:37;10.70;1.00
37281;DHT22;23169;41.804;12.596;2023-04-08T03:33:06;10.60;39.00
37281;DHT22;23169;41.804;12.596;2023-04-08T03:35:36;10.50;1.00
37281;DHT22;23169;41.804;12.596;2023-04-08T03:38:06;10.40;1.00
37281;DHT22;23169;41.804;12.596;2023-04-08T03:40:36;10.60;17.50
37281;DHT22;23169;41.804;12.596;2023-04-08T03:43:05;10.00;1.00
37281;DHT22;23169;41.804;12.596;2023-04-08T03:45:34;10.00;32.20
37281;DHT22;23169;41.804;12.596;2023-04-08T03:48:03;9.90;1.00
37281;DHT22;23169;41.804;12.596;2023-04-08T03:50:32;10.10;39.60
37281;DHT22;23169;41.804;12.596;2023-04-08T03:53:01;10.40;47.80
37281;DHT22;23169;41.804;12.596;2023-04-08T03:55:30;9.70;1.00
37281;DHT22;23169;41.804;12.596;2023-04-08T03:57:58;9.70;1.00
37281;DHT22;23169;41.804;12.596;2023-04-08T04:00:28;9.50;55.60
37281;DHT22;23169;41.804;12.596;2023-04-08T04:02:56;9.50;1.00
37281;DHT22;23169;41.804;12.596;2023-04-08T04:05:25;9.50;1.00
37281;DHT22;23169;41.804;12.596;2023-04-08T04:07:54;9.40;52.10
37281;DHT22;23169;41.804;12.596;2023-04-08T04:10:23;11.30;34.10
37281;DHT22;23169;41.804;12.596;2023-04-08T04:12:51;9.50;1.00
37281;DHT22;23169;41.804;12.596;2023-04-08T04:15:20;9.30;40.10
37281;DHT22;23169;41.804;12.596;2023-04-08T04:17:48;9.50;1.00
37281;DHT22;23169;41.804;12.596;2023-04-08T04:20:18;9.50;1.00
37281;DHT22;23169;41.804;12.596;2023-04-08T04:22:47;9.60;1.00
37281;DHT22;23169;41.804;12.596;2023-04-08T04:25:15;9.50;1.00
37281;DHT22;23169;41.804;12.596;2023-04-08T04:27:44;9.50;1.00
37281;DHT22;23169;41.804;12.596;2023-04-08T04:30:12;9.60;38.80
37281;DHT22;23169;41.804;12.596;2023-04-08T04:32:43;9.80;42.30
37281;DHT22;23169;41.804;12.596;2023-04-08T04:35:12;9.50;1.00
37281;DHT22;23169;41.804;12.596;2023-04-08T04:37:40;9.60;1.00
37281;DHT22;23169;41.804;12.596;2023-04-08T04:40:09;10.10;42.30
37281;DHT22;23169;41.804;12.596;2023-04-08T04:42:38;9.80;30.20
37281;DHT22;23169;41.804;12.596;2023-04-08T04:45:07;10.10;21.50
37281;DHT22;23169;41.804;12.596;2023-04-08T04:47:37;10.10;34.50
37281;DHT22;23169;41.804;12.596;2023-04-08T04:50:06;9.90;1.00
37281;DHT22;23169;41.804;12.596;2023-04-08T04:52:35;9.90;1.00
37281;DHT22;23169;41.804;12.596;2023-04-08T04:55:04;10.00;1.00
37281;DHT22;23169;41.804;12.596;2023-04-08T04:57:33;10.10;1.00
37281;DHT22;23169;41.804;12.596;2023-04-08T05:00:01;10.40;51.10
37281;DHT22;23169;41.804;12.596;2023-04-08T05:02:31;10.50;42.90
37281;DHT22;23169;41.804;12.596;2023-04-08T05:05:00;10.20;1.00
37281;DHT22;23169;41.804;12.596;2023-04-08T05:07:29;10.20;1.00
37281;DHT22;23169;41.804;12.596;2023-04-08T05:09:58;10.20;1.00
37281;DHT22;23169;41.804;12.596;2023-04-08T05:12:26;10.20;1.00
37281;DHT22;23169;41.804;12.596;2023-04-08T05:14:57;9.30;1.00
37281;DHT22;23169;41.804;12.596;2023-04-08T05:17:27;10.50;37.80
37281;DHT22;23169;41.804;12.596;2023-04-08T05:19:55;10.30;1.00
37281;DHT22;23169;41.804;12.596;2023-04-08T05:22:24;10.30;1.00
37281;DHT22;23169;41.804;12.596;2023-04-08T05:24:52;10.10;41.10
37281;DHT22;23169;41.804;12.596;2023-04-08T05:27:21;10.40;1.00
37281;DHT22;23169;41.804;12.596;2023-04-08T05:29:49;10.40;1.00
37281;DHT22;23169;41.804;12.596;2023-04-08T05:32:18;9.90;39.60
37281;DHT22;23169;41.804;12.596;2023-04-08T05:34:47;10.20;31.20
37281;DHT22;23169;41.804;12.596;2023-04-08T05:37:16;9.90;1.00
37281;DHT22;23169;41.804;12.596;2023-04-08T05:39:44;9.80;1.00
37281;DHT22;23169;41.804;12.596;2023-04-08T05:44:43;9.60;1.00
37281;DHT22;23169;41.804;12.596;2023-04-08T05:47:12;9.90;66.70
37281;DHT22;23169;41.804;12.596;2023-04-08T05:49:41;9.50;1.00
37281;DHT22;23169;41.804;12.596;2023-04-08T05:52:10;9.60;1.00
37281;DHT22;23169;41.804;12.596;2023-04-08T05:54:42;9.70;1.00
37281;DHT22;23169;41.804;12.596;2023-04-08T05:57:11;9.30;45.50
37281;DHT22;23169;41.804;12.596;2023-04-08T05:59:40;9.70;1.00
37281;DHT22;23169;41.804;12.596;2023-04-08T06:02:08;9.70;55.10
37281;DHT22;23169;41.804;12.596;2023-04-08T06:04:37;9.60;56.10
37281;DHT22;23169;41.804;12.596;2023-04-08T06:07:05;9.70;1.00
37281;DHT22;23169;41.804;12.596;2023-04-08T06:09:35;9.60;1.00
37281;DHT22;23169;41.804;12.596;2023-04-08T06:12:04;9.50;1.00
37281;DHT22;23169;41.804;12.596;2023-04-08T06:14:33;9.30;1.00
37281;DHT22;23169;41.804;12.596;2023-04-08T06:17:02;9.30;1.00
37281;DHT22;23169;41.804;12.596;2023-04-08T06:19:31;9.20;1.00
37281;DHT22;23169;41.804;12.596;2023-04-08T06:22:00;9.00;48.50
37281;DHT22;23169;41.804;12.596;2023-04-08T06:24:29;9.60;47.00
37281;DHT22;23169;41.804;12.596;2023-04-08T06:26:58;10.00;66.40
37281;DHT22;23169;41.804;12.596;2023-04-08T06:29:26;9.80;50.10
37281;DHT22;23169;41.804;12.596;2023-04-08T06:31:57;9.20;1.00
37281;DHT22;23169;41.804;12.596;2023-04-08T06:34:26;8.70;90.70
37281;DHT22;23169;41.804;12.596;2023-04-08T06:36:54;8.60;98.90
37281;DHT22;23169;41.804;12.596;2023-04-08T06:39:23;8.70;95.60
37281;DHT22;23169;41.804;12.596;2023-04-08T06:41:52;8.60;21.10
37281;DHT22;23169;41.804;12.596;2023-04-08T06:44:21;8.50;99.90
37281;DHT22;23169;41.804;12.596;2023-04-08T06:46:50;8.20;99.90
37281;DHT22;23169;41.804;12.596;2023-04-08T06:49:19;8.40;71.10
37281;DHT22;23169;41.804;12.596;2023-04-08T06:51:47;8.70;99.90
37281;DHT22;23169;41.804;12.596;2023-04-08T06:54:16;8.20;99.90
37281;DHT22;23169;41.804;12.596;2023-04-08T06:56:45;8.80;99.90
37281;DHT22;23169;41.804;12.596;2023-04-08T06:59:14;8.40;99.90
37281;DHT22;23169;41.804;12.596;2023-04-08T07:01:42;8.30;99.90
37281;DHT22;23169;41.804;12.596;2023-04-08T07:04:11;8.90;99.90
37281;DHT22;23169;41.804;12.596;2023-04-08T07:06:39;8.00;99.90
37281;DHT22;23169;41.804;12.596;2023-04-08T07:09:08;8.10;99.90
37281;DHT22;23169;41.804;12.596;2023-04-08T07:11:37;8.80;99.90
37281;DHT22;23169;41.804;12.596;2023-04-08T07:14:06;8.60;99.90
37281;DHT22;23169;41.804;12.596;2023-04-08T07:16:35;8.50;99.90
37281;DHT22;23169;41.804;12.596;2023-04-08T07:19:04;7.90;99.90
37281;DHT22;23169;41.804;12.596;2023-04-08T07:21:32;8.10;99.90
37281;DHT22;23169;41.804;12.596;2023-04-08T07:24:01;8.70;99.90
37281;DHT22;23169;41.804;12.596;2023-04-08T07:26:30;8.30;99.90
37281;DHT22;23169;41.804;12.596;2023-04-08T07:28:58;8.30;99.90
37281;DHT22;23169;41.804;12.596;2023-04-08T07:31:28;8.60;99.90
37281;DHT22;23169;41.804;12.596;2023-04-08T07:33:57;8.40;99.90
37281;DHT22;23169;41.804;12.596;2023-04-08T07:36:26;9.00;99.90
37281;DHT22;23169;41.804;12.596;2023-04-08T07:38:55;8.80;99.90
37281;DHT22;23169;41.804;12.596;2023-04-08T07:41:25;8.60;99.90
37281;DHT22;23169;41.804;12.596;2023-04-08T07:43:53;8.90;99.90
37281;DHT22;23169;41.804;12.596;2023-04-08T07:46:22;9.00;96.10
37281;DHT22;23169;41.804;12.596;2023-04-08T07:48:50;8.80;99.90
37281;DHT22;23169;41.804;12.596;2023-04-08T07:51:19;9.20;91.90
37281;DHT22;23169;41.804;12.596;2023-04-08T07:53:47;10.00;99.90
37281;DHT22;23169;41.804;12.596;2023-04-08T07:56:15;9.30;99.90
37281;DHT22;23169;41.804;12.596;2023-04-08T07:58:46;9.30;99.90
37281;DHT22;23169;41.804;12.596;2023-04-08T08:01:16;9.30;99.90
37281;DHT22;23169;41.804;12.596;2023-04-08T08:03:46;9.70;91.60
37281;DHT22;23169;41.804;12.596;2023-04-08T08:06:29;9.90;91.10
37281;DHT22;23169;41.804;12.596;2023-04-08T08:09:01;10.10;87.90
37281;DHT22;23169;41.804;12.596;2023-04-08T08:11:30;10.40;99.90
37281;DHT22;23169;41.804;12.596;2023-04-08T08:14:00;10.50;84.20
37281;DHT22;23169;41.804;12.596;2023-04-08T08:16:31;10.70;79.80
37281;DHT22;23169;41.804;12.596;2023-04-08T08:19:00;10.90;75.50
37281;DHT22;23169;41.804;12.596;2023-04-08T08:21:29;11.00;81.60
37281;DHT22;23169;41.804;12.596;2023-04-08T08:23:58;11.20;64.50
37281;DHT22;23169;41.804;12.596;2023-04-08T08:26:26;11.40;64.60
37281;DHT22;23169;41.804;12.596;2023-04-08T08:28:55;11.50;76.80
37281;DHT22;23169;41.804;12.596;2023-04-08T08:31:24;11.80;74.60
37281;DHT22;23169;41.804;12.596;2023-04-08T08:33:54;12.00;67.10
37281;DHT22;23169;41.804;12.596;2023-04-08T08:36:23;12.10;65.60
37281;DHT22;23169;41.804;12.596;2023-04-08T08:38:52;12.20;60.00
37281;DHT22;23169;41.804;12.596;2023-04-08T08:41:22;12.40;57.20
37281;DHT22;23169;41.804;12.596;2023-04-08T08:43:50;13.10;90.60
37281;DHT22;23169;41.804;12.596;2023-04-08T08:46:19;12.90;55.30
37281;DHT22;23169;41.804;12.596;2023-04-08T08:48:50;12.90;28.70
37281;DHT22;23169;41.804;12.596;2023-04-08T08:51:19;12.70;43.70
37281;DHT22;23169;41.804;12.596;2023-04-08T08:53:48;12.70;44.30
37281;DHT22;23169;41.804;12.596;2023-04-08T08:56:19;12.90;43.50
37281;DHT22;23169;41.804;12.596;2023-04-08T08:58:50;13.10;42.20
37281;DHT22;23169;41.804;12.596;2023-04-08T09:01:37;13.10;38.90
37281;DHT22;23169;41.804;12.596;2023-04-08T09:04:06;13.20;28.50
37281;DHT22;23169;41.804;12.596;2023-04-08T09:06:36;13.30;35.60
37281;DHT22;23169;41.804;12.596;2023-04-08T09:09:05;13.40;31.90
37281;DHT22;23169;41.804;12.596;2023-04-08T09:11:42;13.40;61.50
37281;DHT22;23169;41.804;12.596;2023-04-08T09:14:24;13.90;46.10
37281;DHT22;23169;41.804;12.596;2023-04-08T09:16:53;14.20;24.50
37281;DHT22;23169;41.804;12.596;2023-04-08T09:19:21;14.30;42.00
37281;DHT22;23169;41.804;12.596;2023-04-08T09:22:06;14.50;36.70
37281;DHT22;23169;41.804;12.596;2023-04-08T09:24:38;14.80;31.40
37281;DHT22;23169;41.804;12.596;2023-04-08T09:27:07;15.00;25.80
37281;DHT22;23169;41.804;12.596;2023-04-08T09:29:36;15.00;31.70
37281;DHT22;23169;41.804;12.596;2023-04-08T09:32:04;14.80;25.30
37281;DHT22;23169;41.804;12.596;2023-04-08T09:34:33;14.90;21.90
37281;DHT22;23169;41.804;12.596;2023-04-08T09:37:03;15.00;24.60
37281;DHT22;23169;41.804;12.596;2023-04-08T09:39:31;15.20;25.60
37281;DHT22;23169;41.804;12.596;2023-04-08T09:42:03;15.20;26.60
37281;DHT22;23169;41.804;12.596;2023-04-08T09:44:35;15.30;24.10
37281;DHT22;23169;41.804;12.596;2023-04-08T09:47:16;15.40;23.80
37281;DHT22;23169;41.804;12.596;2023-04-08T09:49:59;15.60;25.80
37281;DHT22;23169;41.804;12.596;2023-04-08T09:52:34;15.80;16.60
37281;DHT22;23169;41.804;12.596;2023-04-08T09:55:12;16.00;22.20
37281;DHT22;23169;41.804;12.596;2023-04-08T09:58:03;16.40;18.90
37281;DHT22;23169;41.804;12.596;2023-04-08T10:00:37;16.50;13.60
37281;DHT22;23169;41.804;12.596;2023-04-08T10:03:36;16.70;19.50
37281;DHT22;23169;41.804;12.596;2023-04-08T10:06:07;16.70;13.10
37281;DHT22;23169;41.804;12.596;2023-04-08T10:11:07;16.90;11.30
37281;DHT22;23169;41.804;12.596;2023-04-08T10:13:35;17.00;16.00
37281;DHT22;23169;41.804;12.596;2023-04-08T10:18:53;16.30;9.30
37281;DHT22;23169;41.804;12.596;2023-04-08T10:21:41;15.50;16.50
37281;DHT22;23169;41.804;12.596;2023-04-08T10:24:15;15.80;10.20
37281;DHT22;23169;41.804;12.596;2023-04-08T10:26:44;15.50;7.00
37281;DHT22;23169;41.804;12.596;2023-04-08T10:31:56;15.50;12.20
37281;DHT22;23169;41.804;12.596;2023-04-08T10:34:25;16.00;16.90
37281;DHT22;23169;41.804;12.596;2023-04-08T10:36:56;16.50;14.50
37281;DHT22;23169;41.804;12.596;2023-04-08T10:41:55;16.50;1.00
37281;DHT22;23169;41.804;12.596;2023-04-08T10:44:24;16.10;10.90
37281;DHT22;23169;41.804;12.596;2023-04-08T10:46:58;15.70;5.30
37281;DHT22;23169;41.804;12.596;2023-04-08T10:49:33;15.30;10.20
37281;DHT22;23169;41.804;12.596;2023-04-08T10:52:06;14.70;9.10
37281;DHT22;23169;41.804;12.596;2023-04-08T10:54:36;14.50;7.50
37281;DHT22;23169;41.804;12.596;2023-04-08T10:57:05;14.20;11.10
37281;DHT22;23169;41.804;12.596;2023-04-08T10:59:37;14.00;17.40
37281;DHT22;23169;41.804;12.596;2023-04-08T11:02:12;13.80;12.00
37281;DHT22;23169;41.804;12.596;2023-04-08T11:04:42;13.70;11.60
37281;DHT22;23169;41.804;12.596;2023-04-08T11:07:11;13.50;13.40
37281;DHT22;23169;41.804;12.596;2023-04-08T11:09:40;13.30;18.60
37281;DHT22;23169;41.804;12.596;2023-04-08T11:12:10;13.10;17.80
37281;DHT22;23169;41.804;12.596;2023-04-08T11:14:39;12.90;18.20
37281;DHT22;23169;41.804;12.596;2023-04-08T11:17:08;12.60;29.80
37281;DHT22;23169;41.804;12.596;2023-04-08T11:19:37;12.30;18.80
37281;DHT22;23169;41.804;12.596;2023-04-08T11:22:07;10.90;95.60
37281;DHT22;23169;41.804;12.596;2023-04-08T11:24:38;10.70;58.00
37281;DHT22;23169;41.804;12.596;2023-04-08T11:27:06;10.30;70.90
37281;DHT22;23169;41.804;12.596;2023-04-08T11:29:36;10.20;97.80
37281;DHT22;23169;41.804;12.596;2023-04-08T11:32:05;10.20;99.90
37281;DHT22;23169;41.804;12.596;2023-04-08T11:34:38;10.30;99.90
37281;DHT22;23169;41.804;12.596;2023-04-08T11:37:07;10.40;99.90
37281;DHT22;23169;41.804;12.596;2023-04-08T11:39:42;11.00;99.90
37281;DHT22;23169;41.804;12.596;2023-04-08T11:42:27;10.60;99.90
37281;DHT22;23169;41.804;12.596;2023-04-08T11:44:57;10.90;99.90
37281;DHT22;23169;41.804;12.596;2023-04-08T11:47:32;11.00;99.90
37281;DHT22;23169;41.804;12.596;2023-04-08T11:50:00;11.10;99.90
37281;DHT22;23169;41.804;12.596;2023-04-08T11:52:47;11.10;99.90
37281;DHT22;23169;41.804;12.596;2023-04-08T11:55:30;11.10;97.20
37281;DHT22;23169;41.804;12.596;2023-04-08T11:58:03;11.10;99.90
37281;DHT22;23169;41.804;12.596;2023-04-08T12:00:34;11.10;99.90
37281;DHT22;23169;41.804;12.596;2023-04-08T12:03:05;11.20;99.80
37281;DHT22;23169;41.804;12.596;2023-04-08T12:05:34;11.10;99.90
37281;DHT22;23169;41.804;12.596;2023-04-08T12:08:03;11.10;99.90
37281;DHT22;23169;41.804;12.596;2023-04-08T12:10:31;11.10;99.90
37281;DHT22;23169;41.804;12.596;2023-04-08T12:13:00;11.20;98.20
37281;DHT22;23169;41.804;12.596;2023-04-08T12:15:30;11.20;99.90
37281;DHT22;23169;41.804;12.596;2023-04-08T12:17:59;11.30;99.90
37281;DHT22;23169;41.804;12.596;2023-04-08T12:20:31;11.60;99.90
37281;DHT22;23169;41.804;12.596;2023-04-08T12:22:59;11.60;99.90
37281;DHT22;23169;41.804;12.596;2023-04-08T12:25:29;11.80;99.90
37281;DHT22;23169;41.804;12.596;2023-04-08T12:27:58;12.00;95.30
37281;DHT22;23169;41.804;12.596;2023-04-08T12:30:26;12.30;99.90
37281;DHT22;23169;41.804;12.596;2023-04-08T12:32:58;12.10;96.30
37281;DHT22;23169;41.804;12.596;2023-04-08T12:35:27;12.70;96.90
37281;DHT22;23169;41.804;12.596;2023-04-08T12:37:55;12.90;92.00
37281;DHT22;23169;41.804;12.596;2023-04-08T12:40:24;13.10;90.80
37281;DHT22;23169;41.804;12.596;2023-04-08T12:42:53;13.20;85.10
37281;DHT22;23169;41.804;12.596;2023-04-08T12:45:21;13.30;85.80
37281;DHT22;23169;41.804;12.596;2023-04-08T12:47:50;13.40;83.50
37281;DHT22;23169;41.804;12.596;2023-04-08T12:50:18;13.50;81.60
37281;DHT22;23169;41.804;12.596;2023-04-08T12:52:47;13.40;63.30
37281;DHT22;23169;41.804;12.596;2023-04-08T12:55:15;13.40;73.10
37281;DHT22;23169;41.804;12.596;2023-04-08T12:57:45;13.40;64.10
37281;DHT22;23169;41.804;12.596;2023-04-08T13:00:15;13.40;53.00
37281;DHT22;23169;41.804;12.596;2023-04-08T13:02:44;13.30;57.20
37281;DHT22;23169;41.804;12.596;2023-04-08T13:05:13;13.20;49.40
37281;DHT22;23169;41.804;12.596;2023-04-08T13:07:45;13.10;65.70
37281;DHT22;23169;41.804;12.596;2023-04-08T13:10:13;13.10;52.70
37281;DHT22;23169;41.804;12.596;2023-04-08T13:12:43;13.00;54.30
37281;DHT22;23169;41.804;12.596;2023-04-08T13:15:11;13.00;42.80
37281;DHT22;23169;41.804;12.596;2023-04-08T13:17:40;13.00;51.30
37281;DHT22;23169;41.804;12.596;2023-04-08T13:20:09;13.00;54.50
37281;DHT22;23169;41.804;12.596;2023-04-08T13:22:38;13.00;43.60
37281;DHT22;23169;41.804;12.596;2023-04-08T13:25:08;13.10;63.60
37281;DHT22;23169;41.804;12.596;2023-04-08T13:27:39;13.20;56.70
37281;DHT22;23169;41.804;12.596;2023-04-08T13:30:08;13.30;52.20
37281;DHT22;23169;41.804;12.596;2023-04-08T13:32:38;13.60;57.20
37281;DHT22;23169;41.804;12.596;2023-04-08T13:35:06;13.80;46.20
37281;DHT22;23169;41.804;12.596;2023-04-08T13:37:37;13.80;47.40
37281;DHT22;23169;41.804;12.596;2023-04-08T13:40:05;13.70;47.50
37281;DHT22;23169;41.804;12.596;2023-04-08T13:42:36;13.80;51.40
37281;DHT22;23169;41.804;12.596;2023-04-08T13:45:05;13.70;29.00
37281;DHT22;23169;41.804;12.596;2023-04-08T13:47:34;13.80;26.90
37281;DHT22;23169;41.804;12.596;2023-04-08T13:50:03;13.90;23.80
37281;DHT22;23169;41.804;12.596;2023-04-08T13:52:33;13.90;20.30
37281;DHT22;23169;41.804;12.596;2023-04-08T13:55:01;14.00;19.50
37281;DHT22;23169;41.804;12.596;2023-04-08T13:57:30;14.00;10.70
37281;DHT22;23169;41.804;12.596;2023-04-08T14:00:01;14.10;12.60
37281;DHT22;23169;41.804;12.596;2023-04-08T14:02:31;14.30;10.70
37281;DHT22;23169;41.804;12.596;2023-04-08T14:04:59;14.20;1.00
37281;DHT22;23169;41.804;12.596;2023-04-08T14:07:28;14.40;7.10
37281;DHT22;23169;41.804;12.596;2023-04-08T14:09:57;14.70;14.90
37281;DHT22;23169;41.804;12.596;2023-04-08T14:12:26;14.80;2.50
37281;DHT22;23169;41.804;12.596;2023-04-08T14:14:54;14.90;1.10
37281;DHT22;23169;41.804;12.596;2023-04-08T14:17:23;14.90;1.00
37281;DHT22;23169;41.804;12.596;2023-04-08T14:19:52;14.80;1.00
37281;DHT22;23169;41.804;12.596;2023-04-08T14:22:21;14.80;1.00
37281;DHT22;23169;41.804;12.596;2023-04-08T14:24:50;14.80;1.00
37281;DHT22;23169;41.804;12.596;2023-04-08T14:27:18;14.90;1.00
37281;DHT22;23169;41.804;12.596;2023-04-08T14:29:48;15.00;1.00
37281;DHT22;23169;41.804;12.596;2023-04-08T14:32:16;15.20;1.00
37281;DHT22;23169;41.804;12.596;2023-04-08T14:34:45;15.30;1.00
37281;DHT22;23169;41.804;12.596;2023-04-08T14:37:13;16.10;1.00
37281;DHT22;23169;41.804;12.596;2023-04-08T14:39:43;16.80;1.00
37281;DHT22;23169;41.804;12.596;2023-04-08T14:42:12;17.20;1.00
37281;DHT22;23169;41.804;12.596;2023-04-08T14:44:44;17.30;1.00
37281;DHT22;23169;41.804;12.596;2023-04-08T14:47:14;17.60;1.00
37281;DHT22;23169;41.804;12.596;2023-04-08T14:49:43;17.90;1.00
37281;DHT22;23169;41.804;12.596;2023-04-08T14:52:11;18.60;1.00
37281;DHT22;23169;41.804;12.596;2023-04-08T14:54:41;19.40;1.00
37281;DHT22;23169;41.804;12.596;2023-04-08T14:57:11;19.80;1.00
37281;DHT22;23169;41.804;12.596;2023-04-08T14:59:40;19.80;1.00
37281;DHT22;23169;41.804;12.596;2023-04-08T15:02:08;19.70;1.00
37281;DHT22;23169;41.804;12.596;2023-04-08T15:04:38;19.00;1.00
37281;DHT22;23169;41.804;12.596;2023-04-08T15:07:09;18.60;1.00
37281;DHT22;23169;41.804;12.596;2023-04-08T15:09:38;18.20;1.00
37281;DHT22;23169;41.804;12.596;2023-04-08T15:12:06;17.80;1.00
37281;DHT22;23169;41.804;12.596;2023-04-08T15:14:36;17.50;1.00
37281;DHT22;23169;41.804;12.596;2023-04-08T15:17:04;17.20;1.00
37281;DHT22;23169;41.804;12.596;2023-04-08T15:19:33;16.90;1.00
37281;DHT22;23169;41.804;12.596;2023-04-08T15:22:02;16.50;1.00
37281;DHT22;23169;41.804;12.596;2023-04-08T15:24:31;16.30;1.00
37281;DHT22;23169;41.804;12.596;2023-04-08T15:27:00;16.20;1.00
37281;DHT22;23169;41.804;12.596;2023-04-08T15:29:28;15.90;1.00
37281;DHT22;23169;41.804;12.596;2023-04-08T15:31:57;15.70;1.00
37281;DHT22;23169;41.804;12.596;2023-04-08T15:34:25;15.60;1.00
37281;DHT22;23169;41.804;12.596;2023-04-08T15:36:54;15.60;1.00
37281;DHT22;23169;41.804;12.596;2023-04-08T15:39:26;15.90;1.00
37281;DHT22;23169;41.804;12.596;2023-04-08T15:41:57;16.30;1.00
37281;DHT22;23169;41.804;12.596;2023-04-08T15:44:28;16.90;1.00
37281;DHT22;23169;41.804;12.596;2023-04-08T15:47:01;17.40;1.00
37281;DHT22;23169;41.804;12.596;2023-04-08T15:49:30;17.30;1.00
37281;DHT22;23169;41.804;12.596;2023-04-08T15:52:00;17.30;1.00
37281;DHT22;23169;41.804;12.596;2023-04-08T15:54:29;18.00;1.00
37281;DHT22;23169;41.804;12.596;2023-04-08T15:56:59;18.20;1.00
37281;DHT22;23169;41.804;12.596;2023-04-08T15:59:28;18.00;1.00
37281;DHT22;23169;41.804;12.596;2023-04-08T16:01:58;17.60;1.00